sensor_id;sensor_type;location;lat;lon;timestamp;P1;durP1;ratioP1;P2;durP2;ratioP2
33579;SDS011;19909;43.644;-79.438;2023-09-07T00:00:15;4.63;;;4.22;;
33579;SDS011;19909;43.644;-79.438;2023-09-07T00:02:41;5.18;;;4.63;;
33579;SDS011;19909;43.644;-79.438;2023-09-07T00:05:07;7.93;;;5.18;;
33579;SDS011;19909;43.644;-79.438;2023-09-07T00:07:34;5.45;;;4.95;;
33579;SDS011;19909;43.644;-79.438;2023-09-07T00:10:01;7.05;;;5.03;;
33579;SDS011;19909;43.644;-79.438;2023-09-07T00:12:28;8.27;;;5.45;;
33579;SDS011;19909;43.644;-79.438;2023-09-07T00:14:54;8.68;;;5.20;;
33579;SDS011;19909;43.644;-79.438;2023-09-07T00:17:21;4.65;;;4.15;;
33579;SDS011;19909;43.644;-79.438;2023-09-07T00:19:47;9.50;;;5.18;;
33579;SDS011;19909;43.644;-79.438;2023-09-07T00:22:14;8.85;;;5.47;;
33579;SDS011;19909;43.644;-79.438;2023-09-07T00:24:41;7.10;;;4.22;;
33579;SDS011;19909;43.644;-79.438;2023-09-07T00:27:07;7.53;;;4.95;;
33579;SDS011;19909;43.644;-79.438;2023-09-07T00:29:37;4.80;;;4.28;;
33579;SDS011;19909;43.644;-79.438;2023-09-07T00:32:04;7.57;;;4.28;;
33579;SDS011;19909;43.644;-79.438;2023-09-07T00:34:30;4.63;;;4.22;;
33579;SDS011;19909;43.644;-79.438;2023-09-07T00:36:56;6.70;;;4.85;;
33579;SDS011;19909;43.644;-79.438;2023-09-07T00:39:23;6.43;;;4.30;;
33579;SDS011;19909;43.644;-79.438;2023-09-07T00:41:49;8.32;;;3.78;;
33579;SDS011;19909;43.644;-79.438;2023-09-07T00:44:15;6.15;;;4.43;;
33579;SDS011;19909;43.644;-79.438;2023-09-07T00:46:42;7.38;;;4.35;;
33579;SDS011;19909;43.644;-79.438;2023-09-07T00:49:11;4.88;;;3.95;;
33579;SDS011;19909;43.644;-79.438;2023-09-07T00:51:39;5.82;;;3.88;;
33579;SDS011;19909;43.644;-79.438;2023-09-07T00:54:06;7.10;;;4.03;;
33579;SDS011;19909;43.644;-79.438;2023-09-07T00:56:33;4.82;;;4.28;;
33579;SDS011;19909;43.644;-79.438;2023-09-07T00:59:00;5.75;;;4.82;;
33579;SDS011;19909;43.644;-79.438;2023-09-07T01:01:27;6.45;;;4.25;;
33579;SDS011;19909;43.644;-79.438;2023-09-07T01:03:56;6.45;;;4.28;;
33579;SDS011;19909;43.644;-79.438;2023-09-07T01:06:39;5.93;;;4.70;;
33579;SDS011;19909;43.644;-79.438;2023-09-07T01:09:17;5.28;;;3.90;;
33579;SDS011;19909;43.644;-79.438;2023-09-07T01:11:47;5.57;;;4.03;;
33579;SDS011;19909;43.644;-79.438;2023-09-07T01:14:13;4.10;;;3.70;;
33579;SDS011;19909;43.644;-79.438;2023-09-07T01:16:39;5.43;;;3.40;;
33579;SDS011;19909;43.644;-79.438;2023-09-07T01:19:06;4.95;;;3.47;;
33579;SDS011;19909;43.644;-79.438;2023-09-07T01:21:36;7.45;;;4.07;;
33579;SDS011;19909;43.644;-79.438;2023-09-07T01:24:07;4.97;;;3.90;;
33579;SDS011;19909;43.644;-79.438;2023-09-07T01:26:36;4.03;;;3.63;;
33579;SDS011;19909;43.644;-79.438;2023-09-07T01:29:05;8.68;;;4.13;;
33579;SDS011;19909;43.644;-79.438;2023-09-07T01:31:36;4.25;;;3.85;;
33579;SDS011;19909;43.644;-79.438;2023-09-07T01:34:04;4.30;;;3.65;;
33579;SDS011;19909;43.644;-79.438;2023-09-07T01:36:31;8.98;;;4.15;;
33579;SDS011;19909;43.644;-79.438;2023-09-07T01:38:57;5.68;;;3.40;;
33579;SDS011;19909;43.644;-79.438;2023-09-07T01:41:23;8.85;;;3.53;;
33579;SDS011;19909;43.644;-79.438;2023-09-07T01:43:50;3.78;;;3.30;;
33579;SDS011;19909;43.644;-79.438;2023-09-07T01:46:17;4.47;;;3.35;;
33579;SDS011;19909;43.644;-79.438;2023-09-07T01:48:43;6.88;;;3.78;;
33579;SDS011;19909;43.644;-79.438;2023-09-07T01:51:09;4.78;;;3.65;;
33579;SDS011;19909;43.644;-79.438;2023-09-07T01:53:35;5.97;;;3.38;;
33579;SDS011;19909;43.644;-79.438;2023-09-07T01:56:01;5.82;;;3.80;;
33579;SDS011;19909;43.644;-79.438;2023-09-07T01:58:28;4.22;;;3.45;;
33579;SDS011;19909;43.644;-79.438;2023-09-07T02:00:57;4.50;;;3.30;;
33579;SDS011;19909;43.644;-79.438;2023-09-07T02:05:52;5.65;;;3.92;;
33579;SDS011;19909;43.644;-79.438;2023-09-07T02:08:19;5.25;;;3.50;;
33579;SDS011;19909;43.644;-79.438;2023-09-07T02:10:45;6.53;;;3.90;;
33579;SDS011;19909;43.644;-79.438;2023-09-07T02:13:11;7.65;;;3.72;;
33579;SDS011;19909;43.644;-79.438;2023-09-07T02:15:38;6.25;;;3.50;;
33579;SDS011;19909;43.644;-79.438;2023-09-07T02:18:05;5.80;;;3.78;;
33579;SDS011;19909;43.644;-79.438;2023-09-07T02:20:32;6.65;;;4.07;;
33579;SDS011;19909;43.644;-79.438;2023-09-07T02:22:58;8.25;;;4.10;;
33579;SDS011;19909;43.644;-79.438;2023-09-07T02:25:25;6.05;;;3.78;;
33579;SDS011;19909;43.644;-79.438;2023-09-07T02:27:52;9.70;;;3.65;;
33579;SDS011;19909;43.644;-79.438;2023-09-07T02:30:19;5.15;;;3.33;;
33579;SDS011;19909;43.644;-79.438;2023-09-07T02:32:45;8.65;;;3.80;;
33579;SDS011;19909;43.644;-79.438;2023-09-07T02:35:11;7.55;;;4.00;;
33579;SDS011;19909;43.644;-79.438;2023-09-07T02:37:37;7.20;;;3.67;;
33579;SDS011;19909;43.644;-79.438;2023-09-07T02:40:04;5.07;;;3.83;;
33579;SDS011;19909;43.644;-79.438;2023-09-07T02:42:33;7.93;;;4.00;;
33579;SDS011;19909;43.644;-79.438;2023-09-07T02:44:59;8.68;;;4.32;;
33579;SDS011;19909;43.644;-79.438;2023-09-07T02:47:25;6.40;;;3.35;;
33579;SDS011;19909;43.644;-79.438;2023-09-07T02:49:52;4.13;;;3.47;;
33579;SDS011;19909;43.644;-79.438;2023-09-07T02:52:18;8.90;;;4.18;;
33579;SDS011;19909;43.644;-79.438;2023-09-07T02:54:44;9.38;;;3.80;;
33579;SDS011;19909;43.644;-79.438;2023-09-07T02:57:10;5.60;;;3.55;;
33579;SDS011;19909;43.644;-79.438;2023-09-07T02:59:37;12.73;;;4.03;;
33579;SDS011;19909;43.644;-79.438;2023-09-07T03:02:03;7.85;;;3.55;;
33579;SDS011;19909;43.644;-79.438;2023-09-07T03:04:29;6.35;;;3.50;;
33579;SDS011;19909;43.644;-79.438;2023-09-07T03:06:56;8.93;;;3.92;;
33579;SDS011;19909;43.644;-79.438;2023-09-07T03:09:22;6.75;;;3.40;;
33579;SDS011;19909;43.644;-79.438;2023-09-07T03:11:48;7.50;;;3.60;;
33579;SDS011;19909;43.644;-79.438;2023-09-07T03:14:14;11.27;;;3.65;;
33579;SDS011;19909;43.644;-79.438;2023-09-07T03:16:40;8.93;;;3.75;;
33579;SDS011;19909;43.644;-79.438;2023-09-07T03:19:06;8.40;;;3.65;;
33579;SDS011;19909;43.644;-79.438;2023-09-07T03:21:32;7.53;;;3.80;;
33579;SDS011;19909;43.644;-79.438;2023-09-07T03:23:59;11.40;;;4.05;;
33579;SDS011;19909;43.644;-79.438;2023-09-07T03:26:25;9.30;;;3.80;;
33579;SDS011;19909;43.644;-79.438;2023-09-07T03:28:51;10.38;;;3.63;;
33579;SDS011;19909;43.644;-79.438;2023-09-07T03:31:17;9.60;;;3.92;;
33579;SDS011;19909;43.644;-79.438;2023-09-07T03:33:43;6.05;;;3.65;;
33579;SDS011;19909;43.644;-79.438;2023-09-07T03:36:09;8.80;;;4.25;;
33579;SDS011;19909;43.644;-79.438;2023-09-07T03:38:39;11.13;;;3.90;;
33579;SDS011;19909;43.644;-79.438;2023-09-07T03:41:05;11.38;;;4.32;;
33579;SDS011;19909;43.644;-79.438;2023-09-07T03:43:31;7.53;;;3.70;;
33579;SDS011;19909;43.644;-79.438;2023-09-07T03:45:57;7.47;;;3.72;;
33579;SDS011;19909;43.644;-79.438;2023-09-07T03:48:23;6.40;;;3.90;;
33579;SDS011;19909;43.644;-79.438;2023-09-07T03:50:50;5.78;;;3.47;;
33579;SDS011;19909;43.644;-79.438;2023-09-07T03:53:16;13.25;;;3.92;;
33579;SDS011;19909;43.644;-79.438;2023-09-07T03:55:42;9.73;;;3.75;;
33579;SDS011;19909;43.644;-79.438;2023-09-07T03:58:10;8.77;;;3.53;;
33579;SDS011;19909;43.644;-79.438;2023-09-07T04:00:43;13.15;;;4.47;;
33579;SDS011;19909;43.644;-79.438;2023-09-07T04:03:10;8.27;;;4.00;;
33579;SDS011;19909;43.644;-79.438;2023-09-07T04:05:39;4.95;;;3.70;;
33579;SDS011;19909;43.644;-79.438;2023-09-07T04:08:05;8.02;;;3.97;;
33579;SDS011;19909;43.644;-79.438;2023-09-07T04:10:32;10.35;;;3.72;;
33579;SDS011;19909;43.644;-79.438;2023-09-07T04:13:01;10.50;;;4.13;;
33579;SDS011;19909;43.644;-79.438;2023-09-07T04:15:28;9.55;;;4.05;;
33579;SDS011;19909;43.644;-79.438;2023-09-07T04:17:56;7.65;;;3.97;;
33579;SDS011;19909;43.644;-79.438;2023-09-07T04:20:22;12.45;;;4.25;;
33579;SDS011;19909;43.644;-79.438;2023-09-07T04:22:53;10.65;;;3.70;;
33579;SDS011;19909;43.644;-79.438;2023-09-07T04:25:19;7.95;;;3.45;;
33579;SDS011;19909;43.644;-79.438;2023-09-07T04:27:46;5.43;;;3.42;;
33579;SDS011;19909;43.644;-79.438;2023-09-07T04:30:12;9.10;;;3.80;;
33579;SDS011;19909;43.644;-79.438;2023-09-07T04:32:38;10.27;;;4.05;;
33579;SDS011;19909;43.644;-79.438;2023-09-07T04:35:04;9.55;;;4.10;;
33579;SDS011;19909;43.644;-79.438;2023-09-07T04:37:31;8.85;;;3.65;;
33579;SDS011;19909;43.644;-79.438;2023-09-07T04:39:57;10.60;;;3.65;;
33579;SDS011;19909;43.644;-79.438;2023-09-07T04:42:23;14.18;;;3.92;;
33579;SDS011;19909;43.644;-79.438;2023-09-07T04:44:49;9.30;;;4.18;;
33579;SDS011;19909;43.644;-79.438;2023-09-07T04:47:16;7.95;;;3.70;;
33579;SDS011;19909;43.644;-79.438;2023-09-07T04:49:42;6.78;;;3.28;;
33579;SDS011;19909;43.644;-79.438;2023-09-07T04:52:16;6.38;;;4.25;;
33579;SDS011;19909;43.644;-79.438;2023-09-07T04:54:42;8.88;;;3.75;;
33579;SDS011;19909;43.644;-79.438;2023-09-07T04:57:09;8.50;;;4.18;;
33579;SDS011;19909;43.644;-79.438;2023-09-07T04:59:36;10.05;;;4.35;;
33579;SDS011;19909;43.644;-79.438;2023-09-07T05:02:02;14.02;;;4.43;;
33579;SDS011;19909;43.644;-79.438;2023-09-07T05:04:28;11.95;;;4.28;;
33579;SDS011;19909;43.644;-79.438;2023-09-07T05:06:58;12.60;;;4.22;;
33579;SDS011;19909;43.644;-79.438;2023-09-07T05:09:24;6.85;;;4.07;;
33579;SDS011;19909;43.644;-79.438;2023-09-07T05:11:51;8.30;;;3.63;;
33579;SDS011;19909;43.644;-79.438;2023-09-07T05:14:18;12.07;;;4.07;;
33579;SDS011;19909;43.644;-79.438;2023-09-07T05:16:44;9.82;;;4.03;;
33579;SDS011;19909;43.644;-79.438;2023-09-07T05:19:10;7.18;;;4.10;;
33579;SDS011;19909;43.644;-79.438;2023-09-07T05:21:36;6.13;;;4.00;;
33579;SDS011;19909;43.644;-79.438;2023-09-07T05:24:02;5.20;;;4.10;;
33579;SDS011;19909;43.644;-79.438;2023-09-07T05:26:29;8.63;;;4.28;;
33579;SDS011;19909;43.644;-79.438;2023-09-07T05:28:55;10.10;;;4.32;;
33579;SDS011;19909;43.644;-79.438;2023-09-07T05:31:21;8.02;;;4.22;;
33579;SDS011;19909;43.644;-79.438;2023-09-07T05:33:47;7.32;;;3.75;;
33579;SDS011;19909;43.644;-79.438;2023-09-07T05:36:13;13.52;;;4.43;;
33579;SDS011;19909;43.644;-79.438;2023-09-07T05:38:39;8.45;;;3.78;;
33579;SDS011;19909;43.644;-79.438;2023-09-07T05:41:05;8.02;;;3.97;;
33579;SDS011;19909;43.644;-79.438;2023-09-07T05:43:32;9.45;;;4.05;;
33579;SDS011;19909;43.644;-79.438;2023-09-07T05:45:58;5.07;;;3.90;;
33579;SDS011;19909;43.644;-79.438;2023-09-07T05:48:24;10.20;;;4.03;;
33579;SDS011;19909;43.644;-79.438;2023-09-07T05:50:51;8.23;;;3.67;;
33579;SDS011;19909;43.644;-79.438;2023-09-07T05:53:18;10.82;;;4.25;;
33579;SDS011;19909;43.644;-79.438;2023-09-07T05:55:45;8.45;;;4.18;;
33579;SDS011;19909;43.644;-79.438;2023-09-07T05:58:12;7.05;;;3.75;;
33579;SDS011;19909;43.644;-79.438;2023-09-07T06:00:39;5.88;;;3.75;;
33579;SDS011;19909;43.644;-79.438;2023-09-07T06:03:06;6.35;;;4.05;;
33579;SDS011;19909;43.644;-79.438;2023-09-07T06:05:33;7.32;;;3.88;;
33579;SDS011;19909;43.644;-79.438;2023-09-07T06:08:01;8.60;;;4.05;;
33579;SDS011;19909;43.644;-79.438;2023-09-07T06:10:30;4.85;;;3.65;;
33579;SDS011;19909;43.644;-79.438;2023-09-07T06:12:56;8.40;;;3.97;;
33579;SDS011;19909;43.644;-79.438;2023-09-07T06:15:23;6.68;;;3.72;;
33579;SDS011;19909;43.644;-79.438;2023-09-07T06:17:49;7.28;;;4.03;;
33579;SDS011;19909;43.644;-79.438;2023-09-07T06:20:15;9.73;;;3.92;;
33579;SDS011;19909;43.644;-79.438;2023-09-07T06:22:43;6.93;;;3.90;;
33579;SDS011;19909;43.644;-79.438;2023-09-07T06:25:10;6.68;;;4.32;;
33579;SDS011;19909;43.644;-79.438;2023-09-07T06:27:36;6.03;;;3.83;;
33579;SDS011;19909;43.644;-79.438;2023-09-07T06:30:04;6.22;;;3.40;;
33579;SDS011;19909;43.644;-79.438;2023-09-07T06:32:33;8.70;;;4.35;;
33579;SDS011;19909;43.644;-79.438;2023-09-07T06:34:59;9.27;;;4.50;;
33579;SDS011;19909;43.644;-79.438;2023-09-07T06:37:25;7.85;;;3.90;;
33579;SDS011;19909;43.644;-79.438;2023-09-07T06:39:55;8.73;;;4.18;;
33579;SDS011;19909;43.644;-79.438;2023-09-07T06:42:21;7.03;;;4.00;;
33579;SDS011;19909;43.644;-79.438;2023-09-07T06:44:47;6.38;;;3.95;;
33579;SDS011;19909;43.644;-79.438;2023-09-07T06:47:13;5.20;;;3.65;;
33579;SDS011;19909;43.644;-79.438;2023-09-07T06:49:39;7.68;;;3.63;;
33579;SDS011;19909;43.644;-79.438;2023-09-07T06:52:06;5.53;;;3.40;;
33579;SDS011;19909;43.644;-79.438;2023-09-07T06:54:32;8.43;;;3.70;;
33579;SDS011;19909;43.644;-79.438;2023-09-07T06:56:58;6.32;;;3.42;;
33579;SDS011;19909;43.644;-79.438;2023-09-07T06:59:24;7.05;;;4.03;;
33579;SDS011;19909;43.644;-79.438;2023-09-07T07:01:50;10.35;;;4.30;;
33579;SDS011;19909;43.644;-79.438;2023-09-07T07:04:16;8.65;;;3.90;;
33579;SDS011;19909;43.644;-79.438;2023-09-07T07:06:43;10.77;;;4.30;;
33579;SDS011;19909;43.644;-79.438;2023-09-07T07:09:09;5.43;;;3.30;;
33579;SDS011;19909;43.644;-79.438;2023-09-07T07:11:36;7.68;;;4.18;;
33579;SDS011;19909;43.644;-79.438;2023-09-07T07:14:04;8.48;;;4.25;;
33579;SDS011;19909;43.644;-79.438;2023-09-07T07:16:30;5.75;;;3.45;;
33579;SDS011;19909;43.644;-79.438;2023-09-07T07:18:56;11.85;;;4.05;;
33579;SDS011;19909;43.644;-79.438;2023-09-07T07:21:22;4.63;;;3.45;;
33579;SDS011;19909;43.644;-79.438;2023-09-07T07:23:49;6.30;;;4.03;;
33579;SDS011;19909;43.644;-79.438;2023-09-07T07:26:16;7.35;;;3.53;;
33579;SDS011;19909;43.644;-79.438;2023-09-07T07:28:42;6.65;;;3.97;;
33579;SDS011;19909;43.644;-79.438;2023-09-07T07:31:09;6.57;;;4.05;;
33579;SDS011;19909;43.644;-79.438;2023-09-07T07:33:35;5.05;;;3.45;;
33579;SDS011;19909;43.644;-79.438;2023-09-07T07:36:03;6.43;;;3.78;;
33579;SDS011;19909;43.644;-79.438;2023-09-07T07:38:29;6.75;;;3.85;;
33579;SDS011;19909;43.644;-79.438;2023-09-07T07:40:55;7.30;;;4.15;;
33579;SDS011;19909;43.644;-79.438;2023-09-07T07:43:22;4.72;;;3.67;;
33579;SDS011;19909;43.644;-79.438;2023-09-07T07:45:48;7.40;;;4.00;;
33579;SDS011;19909;43.644;-79.438;2023-09-07T07:48:14;5.47;;;4.10;;
33579;SDS011;19909;43.644;-79.438;2023-09-07T07:50:40;5.72;;;3.40;;
33579;SDS011;19909;43.644;-79.438;2023-09-07T07:53:06;5.20;;;3.80;;
33579;SDS011;19909;43.644;-79.438;2023-09-07T07:55:38;5.07;;;3.80;;
33579;SDS011;19909;43.644;-79.438;2023-09-07T07:58:09;12.95;;;4.88;;
33579;SDS011;19909;43.644;-79.438;2023-09-07T08:00:38;6.47;;;3.88;;
33579;SDS011;19909;43.644;-79.438;2023-09-07T08:03:06;6.32;;;4.00;;
33579;SDS011;19909;43.644;-79.438;2023-09-07T08:05:33;8.40;;;4.50;;
33579;SDS011;19909;43.644;-79.438;2023-09-07T08:08:00;5.45;;;4.10;;
33579;SDS011;19909;43.644;-79.438;2023-09-07T08:10:26;5.35;;;3.97;;
33579;SDS011;19909;43.644;-79.438;2023-09-07T08:12:53;4.68;;;3.90;;
33579;SDS011;19909;43.644;-79.438;2023-09-07T08:15:20;5.45;;;4.20;;
33579;SDS011;19909;43.644;-79.438;2023-09-07T08:17:48;7.07;;;4.65;;
33579;SDS011;19909;43.644;-79.438;2023-09-07T08:20:14;6.75;;;4.57;;
33579;SDS011;19909;43.644;-79.438;2023-09-07T08:22:41;7.28;;;4.10;;
33579;SDS011;19909;43.644;-79.438;2023-09-07T08:25:11;7.45;;;4.25;;
33579;SDS011;19909;43.644;-79.438;2023-09-07T08:27:41;9.38;;;5.30;;
33579;SDS011;19909;43.644;-79.438;2023-09-07T08:30:13;5.65;;;4.28;;
33579;SDS011;19909;43.644;-79.438;2023-09-07T08:32:44;7.30;;;4.47;;
33579;SDS011;19909;43.644;-79.438;2023-09-07T08:35:13;5.03;;;4.18;;
33579;SDS011;19909;43.644;-79.438;2023-09-07T08:37:40;7.95;;;4.53;;
33579;SDS011;19909;43.644;-79.438;2023-09-07T08:40:06;5.63;;;4.20;;
33579;SDS011;19909;43.644;-79.438;2023-09-07T08:42:35;5.82;;;4.38;;
33579;SDS011;19909;43.644;-79.438;2023-09-07T08:45:02;8.98;;;4.15;;
33579;SDS011;19909;43.644;-79.438;2023-09-07T08:47:32;5.85;;;3.90;;
33579;SDS011;19909;43.644;-79.438;2023-09-07T08:49:59;6.85;;;4.28;;
33579;SDS011;19909;43.644;-79.438;2023-09-07T08:52:26;5.90;;;4.28;;
33579;SDS011;19909;43.644;-79.438;2023-09-07T08:54:53;8.07;;;4.03;;
33579;SDS011;19909;43.644;-79.438;2023-09-07T08:57:23;6.88;;;4.20;;
33579;SDS011;19909;43.644;-79.438;2023-09-07T08:59:52;9.55;;;4.90;;
33579;SDS011;19909;43.644;-79.438;2023-09-07T09:02:19;4.75;;;3.83;;
33579;SDS011;19909;43.644;-79.438;2023-09-07T09:04:45;6.38;;;3.95;;
33579;SDS011;19909;43.644;-79.438;2023-09-07T09:07:11;5.70;;;3.65;;
33579;SDS011;19909;43.644;-79.438;2023-09-07T09:09:38;8.05;;;4.70;;
33579;SDS011;19909;43.644;-79.438;2023-09-07T09:12:11;5.60;;;4.60;;
33579;SDS011;19909;43.644;-79.438;2023-09-07T09:14:41;7.65;;;4.30;;
33579;SDS011;19909;43.644;-79.438;2023-09-07T09:17:13;8.60;;;5.75;;
33579;SDS011;19909;43.644;-79.438;2023-09-07T09:19:40;8.80;;;4.63;;
33579;SDS011;19909;43.644;-79.438;2023-09-07T09:22:07;7.68;;;5.07;;
33579;SDS011;19909;43.644;-79.438;2023-09-07T09:24:33;10.55;;;5.75;;
33579;SDS011;19909;43.644;-79.438;2023-09-07T09:27:00;9.50;;;4.55;;
33579;SDS011;19909;43.644;-79.438;2023-09-07T09:29:27;11.20;;;6.68;;
33579;SDS011;19909;43.644;-79.438;2023-09-07T09:31:53;14.15;;;6.47;;
33579;SDS011;19909;43.644;-79.438;2023-09-07T09:34:20;9.55;;;5.90;;
33579;SDS011;19909;43.644;-79.438;2023-09-07T09:36:47;14.77;;;6.30;;
33579;SDS011;19909;43.644;-79.438;2023-09-07T09:39:23;11.88;;;5.88;;
33579;SDS011;19909;43.644;-79.438;2023-09-07T09:41:49;9.45;;;5.38;;
33579;SDS011;19909;43.644;-79.438;2023-09-07T09:44:16;14.27;;;4.78;;
33579;SDS011;19909;43.644;-79.438;2023-09-07T09:46:44;7.95;;;5.20;;
33579;SDS011;19909;43.644;-79.438;2023-09-07T09:49:11;9.05;;;4.85;;
33579;SDS011;19909;43.644;-79.438;2023-09-07T09:51:40;9.15;;;4.80;;
33579;SDS011;19909;43.644;-79.438;2023-09-07T09:54:08;6.75;;;4.05;;
33579;SDS011;19909;43.644;-79.438;2023-09-07T09:56:35;7.30;;;4.03;;
33579;SDS011;19909;43.644;-79.438;2023-09-07T09:59:01;8.60;;;3.65;;
33579;SDS011;19909;43.644;-79.438;2023-09-07T10:01:27;5.88;;;3.80;;
33579;SDS011;19909;43.644;-79.438;2023-09-07T10:03:57;5.65;;;3.40;;
33579;SDS011;19909;43.644;-79.438;2023-09-07T10:06:24;8.45;;;3.58;;
33579;SDS011;19909;43.644;-79.438;2023-09-07T10:08:59;6.05;;;3.50;;
33579;SDS011;19909;43.644;-79.438;2023-09-07T10:11:32;4.72;;;2.92;;
33579;SDS011;19909;43.644;-79.438;2023-09-07T10:14:04;4.00;;;2.72;;
33579;SDS011;19909;43.644;-79.438;2023-09-07T10:16:44;4.75;;;2.50;;
33579;SDS011;19909;43.644;-79.438;2023-09-07T10:19:15;5.32;;;2.53;;
33579;SDS011;19909;43.644;-79.438;2023-09-07T10:21:45;4.13;;;2.05;;
33579;SDS011;19909;43.644;-79.438;2023-09-07T10:24:22;4.95;;;2.17;;
33579;SDS011;19909;43.644;-79.438;2023-09-07T10:26:56;4.55;;;2.25;;
33579;SDS011;19909;43.644;-79.438;2023-09-07T10:29:26;2.30;;;1.70;;
33579;SDS011;19909;43.644;-79.438;2023-09-07T10:31:53;4.82;;;2.03;;
33579;SDS011;19909;43.644;-79.438;2023-09-07T10:34:19;5.03;;;1.73;;
33579;SDS011;19909;43.644;-79.438;2023-09-07T10:36:47;5.22;;;1.65;;
33579;SDS011;19909;43.644;-79.438;2023-09-07T10:39:18;4.57;;;1.58;;
33579;SDS011;19909;43.644;-79.438;2023-09-07T10:41:46;5.78;;;1.55;;
33579;SDS011;19909;43.644;-79.438;2023-09-07T10:44:12;6.10;;;2.28;;
33579;SDS011;19909;43.644;-79.438;2023-09-07T10:46:39;2.72;;;1.40;;
33579;SDS011;19909;43.644;-79.438;2023-09-07T10:49:10;2.38;;;1.40;;
33579;SDS011;19909;43.644;-79.438;2023-09-07T10:51:44;5.67;;;1.60;;
33579;SDS011;19909;43.644;-79.438;2023-09-07T10:54:18;6.13;;;1.60;;
33579;SDS011;19909;43.644;-79.438;2023-09-07T10:56:48;5.63;;;1.40;;
33579;SDS011;19909;43.644;-79.438;2023-09-07T10:59:15;6.22;;;1.30;;
33579;SDS011;19909;43.644;-79.438;2023-09-07T11:01:45;4.10;;;1.30;;
33579;SDS011;19909;43.644;-79.438;2023-09-07T11:04:13;3.17;;;1.23;;
33579;SDS011;19909;43.644;-79.438;2023-09-07T11:06:42;2.38;;;1.00;;
33579;SDS011;19909;43.644;-79.438;2023-09-07T11:09:09;2.45;;;1.02;;
33579;SDS011;19909;43.644;-79.438;2023-09-07T11:11:39;5.43;;;1.20;;
33579;SDS011;19909;43.644;-79.438;2023-09-07T11:14:06;3.35;;;1.30;;
33579;SDS011;19909;43.644;-79.438;2023-09-07T11:16:33;1.80;;;1.02;;
33579;SDS011;19909;43.644;-79.438;2023-09-07T11:19:03;4.18;;;1.00;;
33579;SDS011;19909;43.644;-79.438;2023-09-07T11:21:30;3.10;;;1.20;;
33579;SDS011;19909;43.644;-79.438;2023-09-07T11:23:58;6.22;;;1.25;;
33579;SDS011;19909;43.644;-79.438;2023-09-07T11:26:24;2.92;;;1.10;;
33579;SDS011;19909;43.644;-79.438;2023-09-07T11:28:50;1.85;;;1.00;;
33579;SDS011;19909;43.644;-79.438;2023-09-07T11:31:19;2.20;;;0.75;;
33579;SDS011;19909;43.644;-79.438;2023-09-07T11:33:47;4.88;;;1.23;;
33579;SDS011;19909;43.644;-79.438;2023-09-07T11:36:14;3.25;;;1.10;;
33579;SDS011;19909;43.644;-79.438;2023-09-07T11:38:42;4.05;;;1.52;;
33579;SDS011;19909;43.644;-79.438;2023-09-07T11:41:10;6.88;;;1.40;;
33579;SDS011;19909;43.644;-79.438;2023-09-07T11:43:36;2.78;;;1.30;;
33579;SDS011;19909;43.644;-79.438;2023-09-07T11:46:04;2.08;;;1.40;;
33579;SDS011;19909;43.644;-79.438;2023-09-07T11:48:31;2.25;;;1.45;;
33579;SDS011;19909;43.644;-79.438;2023-09-07T11:50:59;2.08;;;1.20;;
33579;SDS011;19909;43.644;-79.438;2023-09-07T11:53:25;4.25;;;1.20;;
33579;SDS011;19909;43.644;-79.438;2023-09-07T11:55:51;3.70;;;1.50;;
33579;SDS011;19909;43.644;-79.438;2023-09-07T11:58:17;3.85;;;1.42;;
33579;SDS011;19909;43.644;-79.438;2023-09-07T12:00:44;2.15;;;1.13;;
33579;SDS011;19909;43.644;-79.438;2023-09-07T12:03:11;3.60;;;1.50;;
33579;SDS011;19909;43.644;-79.438;2023-09-07T12:05:37;3.55;;;1.50;;
33579;SDS011;19909;43.644;-79.438;2023-09-07T12:08:05;2.83;;;1.38;;
33579;SDS011;19909;43.644;-79.438;2023-09-07T12:10:31;2.80;;;1.13;;
33579;SDS011;19909;43.644;-79.438;2023-09-07T12:12:57;4.18;;;1.15;;
33579;SDS011;19909;43.644;-79.438;2023-09-07T12:15:23;2.20;;;1.20;;
33579;SDS011;19909;43.644;-79.438;2023-09-07T12:17:49;3.45;;;1.65;;
33579;SDS011;19909;43.644;-79.438;2023-09-07T12:20:19;5.13;;;1.77;;
33579;SDS011;19909;43.644;-79.438;2023-09-07T12:22:46;2.35;;;1.02;;
33579;SDS011;19909;43.644;-79.438;2023-09-07T12:25:14;2.28;;;0.88;;
33579;SDS011;19909;43.644;-79.438;2023-09-07T12:27:40;3.75;;;1.17;;
33579;SDS011;19909;43.644;-79.438;2023-09-07T12:30:09;2.67;;;1.35;;
33579;SDS011;19909;43.644;-79.438;2023-09-07T12:32:38;3.33;;;0.90;;
33579;SDS011;19909;43.644;-79.438;2023-09-07T12:35:05;4.63;;;1.10;;
33579;SDS011;19909;43.644;-79.438;2023-09-07T12:37:34;4.15;;;1.05;;
33579;SDS011;19909;43.644;-79.438;2023-09-07T12:40:01;2.30;;;0.98;;
33579;SDS011;19909;43.644;-79.438;2023-09-07T12:42:37;2.72;;;1.13;;
33579;SDS011;19909;43.644;-79.438;2023-09-07T12:45:07;4.28;;;1.17;;
33579;SDS011;19909;43.644;-79.438;2023-09-07T12:47:34;3.35;;;1.10;;
33579;SDS011;19909;43.644;-79.438;2023-09-07T12:50:00;6.00;;;1.27;;
33579;SDS011;19909;43.644;-79.438;2023-09-07T12:52:27;2.92;;;1.15;;
33579;SDS011;19909;43.644;-79.438;2023-09-07T12:54:53;6.30;;;1.70;;
33579;SDS011;19909;43.644;-79.438;2023-09-07T12:57:19;2.67;;;1.10;;
33579;SDS011;19909;43.644;-79.438;2023-09-07T12:59:45;4.90;;;1.40;;
33579;SDS011;19909;43.644;-79.438;2023-09-07T13:02:11;1.90;;;1.00;;
33579;SDS011;19909;43.644;-79.438;2023-09-07T13:04:38;3.03;;;1.20;;
33579;SDS011;19909;43.644;-79.438;2023-09-07T13:07:04;5.97;;;1.38;;
33579;SDS011;19909;43.644;-79.438;2023-09-07T13:09:30;6.50;;;1.73;;
33579;SDS011;19909;43.644;-79.438;2023-09-07T13:11:56;4.78;;;1.48;;
33579;SDS011;19909;43.644;-79.438;2023-09-07T13:14:22;1.67;;;1.08;;
33579;SDS011;19909;43.644;-79.438;2023-09-07T13:16:49;3.40;;;1.52;;
33579;SDS011;19909;43.644;-79.438;2023-09-07T13:19:16;5.15;;;1.60;;
33579;SDS011;19909;43.644;-79.438;2023-09-07T13:21:42;6.05;;;1.80;;
33579;SDS011;19909;43.644;-79.438;2023-09-07T13:24:08;3.65;;;1.52;;
33579;SDS011;19909;43.644;-79.438;2023-09-07T13:26:34;5.95;;;1.65;;
33579;SDS011;19909;43.644;-79.438;2023-09-07T13:29:04;2.95;;;1.60;;
33579;SDS011;19909;43.644;-79.438;2023-09-07T13:31:30;6.55;;;1.73;;
33579;SDS011;19909;43.644;-79.438;2023-09-07T13:33:56;5.28;;;1.85;;
33579;SDS011;19909;43.644;-79.438;2023-09-07T13:36:22;5.55;;;1.73;;
33579;SDS011;19909;43.644;-79.438;2023-09-07T13:38:48;3.92;;;1.95;;
33579;SDS011;19909;43.644;-79.438;2023-09-07T13:41:15;2.75;;;1.40;;
33579;SDS011;19909;43.644;-79.438;2023-09-07T13:43:41;2.80;;;1.23;;
33579;SDS011;19909;43.644;-79.438;2023-09-07T13:46:07;4.32;;;1.50;;
33579;SDS011;19909;43.644;-79.438;2023-09-07T13:48:33;4.57;;;1.63;;
33579;SDS011;19909;43.644;-79.438;2023-09-07T13:50:59;2.78;;;1.35;;
33579;SDS011;19909;43.644;-79.438;2023-09-07T13:53:26;3.72;;;1.30;;
33579;SDS011;19909;43.644;-79.438;2023-09-07T13:55:52;4.45;;;1.58;;
33579;SDS011;19909;43.644;-79.438;2023-09-07T13:58:18;6.50;;;2.28;;
33579;SDS011;19909;43.644;-79.438;2023-09-07T14:00:44;2.42;;;1.77;;
33579;SDS011;19909;43.644;-79.438;2023-09-07T14:03:12;3.80;;;1.85;;
33579;SDS011;19909;43.644;-79.438;2023-09-07T14:05:38;5.22;;;1.75;;
33579;SDS011;19909;43.644;-79.438;2023-09-07T14:08:04;6.68;;;2.00;;
33579;SDS011;19909;43.644;-79.438;2023-09-07T14:10:31;3.75;;;1.70;;
33579;SDS011;19909;43.644;-79.438;2023-09-07T14:12:57;3.33;;;1.42;;
33579;SDS011;19909;43.644;-79.438;2023-09-07T14:15:24;1.75;;;1.38;;
33579;SDS011;19909;43.644;-79.438;2023-09-07T14:17:50;4.07;;;1.60;;
33579;SDS011;19909;43.644;-79.438;2023-09-07T14:20:16;2.95;;;1.83;;
33579;SDS011;19909;43.644;-79.438;2023-09-07T14:22:44;2.22;;;1.33;;